Time;durP1;ratioP1;P1;durP2;ratioP2;P2;SDS_P1;SDS_P2;PMS_P1;PMS_P2;Temp;Humidity;BMP_temperature;BMP_pressure;BME280_temperature;BME280_humidity;BME280_pressure;Samples;Min_cycle;Max_cycle;Signal;HPM_P1;HPM_P2
2022/05/11 00:01:13;;;;;;;;;;;;;;;21.79;46.92;101186.59;4993205;28;19943;-82
2022/05/11 00:03:39;;;;;;;;;;;;;;;21.79;47.01;101181.09;4995153;28;20011;-81
2022/05/11 00:06:05;;;;;;;;;;;;;;;21.80;46.94;101181.94;4993093;28;19940;-81
2022/05/11 00:08:31;;;;;;;;;;;;;;;21.79;46.91;101172.84;4997578;28;20349;-82
2022/05/11 00:10:56;;;;;;;;;;;;;;;21.79;46.95;101172.03;4998507;28;19926;-81
2022/05/11 00:13:21;;;;;;;;;;;;;;;21.79;46.92;101172.03;4996846;28;19922;-81
2022/05/11 00:15:46;;;;;;;;;;;;;;;21.79;47.15;101170.09;4996791;28;19952;-82
2022/05/11 00:18:12;;;;;;;;;;;;;;;21.78;46.90;101171.22;4997773;28;19952;-81
2022/05/11 00:20:37;;;;;;;;;;;;;;;21.79;46.85;101163.78;4997039;28;20380;-82
2022/05/11 00:23:03;;;;;;;;;;;;;;;21.78;47.09;101165.72;4996904;28;20008;-82
2022/05/11 00:25:28;;;;;;;;;;;;;;;21.78;47.01;101171.22;4996948;28;19951;-82
2022/05/11 00:27:55;;;;;;;;;;;;;;;21.78;47.06;101164.94;4996608;28;20016;-81
2022/05/11 00:30:21;;;;;;;;;;;;;;;21.76;47.17;101165.22;4996560;28;20040;-82
2022/05/11 00:32:47;;;;;;;;;;;;;;;21.78;46.98;101159.44;4997298;28;19944;-86
2022/05/11 00:35:12;;;;;;;;;;;;;;;21.77;46.85;101157.78;4997851;28;19955;-81
2022/05/11 00:37:37;;;;;;;;;;;;;;;21.77;46.90;101146.78;4997003;28;20040;-81
2022/05/11 00:40:03;;;;;;;;;;;;;;;21.77;46.87;101149.53;4996743;28;20360;-81
2022/05/11 00:42:29;;;;;;;;;;;;;;;21.77;47.11;101144.88;4996282;28;19940;-81
2022/05/11 00:44:54;;;;;;;;;;;;;;;21.76;47.13;101151.47;4997479;28;19936;-82
2022/05/11 00:47:25;;;;;;;;;;;;;;;21.77;47.03;101146.78;4996824;28;19944;-82
2022/05/11 00:50:11;;;;;;;;;;;;;;;21.76;47.18;101147.91;4996085;28;19967;-82
2022/05/11 00:52:42;;;;;;;;;;;;;;;21.76;47.13;101147.91;4969453;28;19918;-82
2022/05/11 00:55:26;;;;;;;;;;;;;;;21.76;46.86;101145.16;4996687;28;20017;-82
2022/05/11 00:57:55;;;;;;;;;;;;;;;21.75;46.93;101133.34;4997293;28;20365;-82
2022/05/11 01:00:22;;;;;;;;;;;;;;;21.75;46.83;101129.81;4996992;28;19925;-81
2022/05/11 01:02:51;;;;;;;;;;;;;;;21.75;46.81;101132.56;4996131;28;19948;-81
2022/05/11 01:05:16;;;;;;;;;;;;;;;21.74;46.84;101126.22;4997159;28;19960;-82
2022/05/11 01:07:41;;;;;;;;;;;;;;;21.75;46.94;101124.31;4995917;28;19940;-81
2022/05/11 01:10:08;;;;;;;;;;;;;;;21.75;46.84;101121.56;4996487;28;20412;-86
2022/05/11 01:12:41;;;;;;;;;;;;;;;21.74;47.05;101126.22;4997028;28;19922;-82
2022/05/11 01:15:08;;;;;;;;;;;;;;;21.74;46.93;101122.66;4996892;28;19947;-82
2022/05/11 01:17:36;;;;;;;;;;;;;;;21.74;46.78;101125.41;4995653;28;19917;-81
2022/05/11 01:20:04;;;;;;;;;;;;;;;21.73;47.08;101121.84;4994926;28;19984;-82
2022/05/11 01:22:36;;;;;;;;;;;;;;;21.73;46.80;101119.09;4996093;28;19981;-81
2022/05/11 01:25:04;;;;;;;;;;;;;;;21.73;47.08;101121.84;4996801;28;19942;-82
2022/05/11 01:27:32;;;;;;;;;;;;;;;21.74;46.80;101119.91;4995433;28;20002;-81
2022/05/11 01:29:59;;;;;;;;;;;;;;;21.73;47.13;101112.78;4996475;28;19925;-82
2022/05/11 01:32:26;;;;;;;;;;;;;;;21.73;46.99;101119.09;4996234;28;20265;-81
2022/05/11 01:34:56;;;;;;;;;;;;;;;21.73;46.76;101124.59;4995381;28;19976;-87
2022/05/11 01:37:21;;;;;;;;;;;;;;;21.73;46.75;101115.53;4996793;28;19940;-82
2022/05/11 01:39:46;;;;;;;;;;;;;;;21.72;46.95;101109.25;4996700;28;19967;-81
2022/05/11 01:42:12;;;;;;;;;;;;;;;21.72;46.99;101114.75;4995449;28;19986;-81
2022/05/11 01:44:37;;;;;;;;;;;;;;;21.73;46.89;101101.78;4995338;28;20446;-81
2022/05/11 01:47:02;;;;;;;;;;;;;;;21.72;46.75;101102.91;4995677;28;20019;-81
2022/05/11 01:49:28;;;;;;;;;;;;;;;21.72;46.92;101097.41;4996688;28;19928;-81
2022/05/11 01:51:53;;;;;;;;;;;;;;;21.72;47.03;101094.66;4996313;28;19948;-87
2022/05/11 01:54:19;;;;;;;;;;;;;;;21.71;46.71;101096.59;4997886;28;20065;-81
2022/05/11 01:56:44;;;;;;;;;;;;;;;21.72;46.88;101100.16;4996861;28;19937;-82
2022/05/11 01:59:10;;;;;;;;;;;;;;;21.70;46.87;101089.47;4995142;28;19948;-82
2022/05/11 02:01:36;;;;;;;;;;;;;;;21.71;46.76;101087.53;4995815;28;19943;-82
2022/05/11 02:04:02;;;;;;;;;;;;;;;21.71;46.76;101091.09;4994666;28;19954;-82
2022/05/11 02:09:12;;;;;;;;;;;;;;;21.70;46.69;101094.19;4996633;28;20482;-81
2022/05/11 02:11:37;;;;;;;;;;;;;;;21.71;47.12;101095.78;4994574;28;19965;-82
2022/05/11 02:14:03;;;;;;;;;;;;;;;21.69;46.70;101090.59;4994555;28;19996;-83
2022/05/11 02:16:28;;;;;;;;;;;;;;;21.70;46.62;101086.72;4995267;28;20000;-81
2022/05/11 02:18:56;;;;;;;;;;;;;;;21.69;46.68;101098.84;4995785;28;20272;-82
2022/05/11 02:21:22;;;;;;;;;;;;;;;21.69;46.67;101093.34;4994813;28;19922;-81
2022/05/11 02:23:50;;;;;;;;;;;;;;;21.69;46.67;101087.84;4995676;28;20303;-81
2022/05/11 02:26:16;;;;;;;;;;;;;;;21.69;46.88;101084.28;4994116;28;19936;-81
2022/05/11 02:28:42;;;;;;;;;;;;;;;21.69;46.71;101090.59;4996132;28;19935;-81
2022/05/11 02:31:08;;;;;;;;;;;;;;;21.69;46.77;101085.09;4993328;28;19930;-82
2022/05/11 02:33:33;;;;;;;;;;;;;;;21.69;46.69;101090.59;4994506;28;19960;-82
2022/05/11 02:35:59;;;;;;;;;;;;;;;21.68;46.94;101088.16;4995422;28;19951;-86
2022/05/11 02:38:25;;;;;;;;;;;;;;;21.68;46.77;101088.97;4994152;28;19980;-81
2022/05/11 02:40:51;;;;;;;;;;;;;;;21.68;46.62;101086.22;4994249;28;19947;-82
2022/05/11 02:43:16;;;;;;;;;;;;;;;21.68;46.64;101088.16;4995315;28;19922;-81
2022/05/11 02:45:42;;;;;;;;;;;;;;;21.68;46.97;101086.22;4995364;28;19922;-81
2022/05/11 02:48:08;;;;;;;;;;;;;;;21.68;46.72;101080.72;4994162;28;19936;-82
2022/05/11 02:50:39;;;;;;;;;;;;;;;21.68;46.84;101083.47;4994217;28;19935;-82
2022/05/11 02:53:08;;;;;;;;;;;;;;;21.67;46.65;101086.53;4994755;28;20327;-85
2022/05/11 02:55:36;;;;;;;;;;;;;;;21.68;46.66;101090.91;4995234;28;19928;-82
2022/05/11 02:58:02;;;;;;;;;;;;;;;21.66;46.59;101082.97;4995923;28;19963;-85
2022/05/11 03:00:27;;;;;;;;;;;;;;;21.67;46.76;101073.63;4995155;28;20285;-82
2022/05/11 03:02:53;;;;;;;;;;;;;;;21.66;46.85;101071.97;4994102;28;20385;-82
2022/05/11 03:05:18;;;;;;;;;;;;;;;21.67;46.92;101068.13;4994835;28;20441;-82
2022/05/11 03:07:43;;;;;;;;;;;;;;;21.66;46.79;101063.72;4994152;28;20448;-81
2022/05/11 03:10:09;;;;;;;;;;;;;;;21.66;46.72;101060.16;4995662;28;20354;-81
2022/05/11 03:12:35;;;;;;;;;;;;;;;21.66;46.59;101060.16;4994644;28;20456;-81
2022/05/11 03:15:01;;;;;;;;;;;;;;;21.66;46.53;101057.41;4994805;28;19932;-81
2022/05/11 03:17:26;;;;;;;;;;;;;;;21.65;46.54;101056.59;4994571;28;19928;-81
2022/05/11 03:19:52;;;;;;;;;;;;;;;21.65;46.61;101051.09;4995998;28;19964;-81
2022/05/11 03:22:17;;;;;;;;;;;;;;;21.65;46.50;101051.09;4994500;28;19963;-82
2022/05/11 03:24:42;;;;;;;;;;;;;;;21.66;46.79;101054.66;4993894;28;20408;-82
2022/05/11 03:27:08;;;;;;;;;;;;;;;21.66;46.63;101054.66;4994045;28;19917;-82
2022/05/11 03:29:34;;;;;;;;;;;;;;;21.65;46.73;101053.06;4993702;28;19929;-82
2022/05/11 03:34:43;;;;;;;;;;;;;;;21.64;46.60;101052.22;4994643;28;19925;-85
2022/05/11 03:37:10;;;;;;;;;;;;;;;21.65;46.53;101042.06;4994558;28;19918;-82
2022/05/11 03:39:35;;;;;;;;;;;;;;;21.64;46.55;101038.47;4993720;28;20281;-82
2022/05/11 03:42:00;;;;;;;;;;;;;;;21.63;46.86;101041.53;4994210;28;19929;-82
2022/05/11 03:44:26;;;;;;;;;;;;;;;21.63;46.84;101041.53;4997666;28;19948;-82
2022/05/11 03:46:52;;;;;;;;;;;;;;;21.63;46.80;101038.78;4997751;28;20320;-83
2022/05/11 03:49:17;;;;;;;;;;;;;;;21.63;46.56;101034.09;4997953;28;19972;-82
2022/05/11 03:51:42;;;;;;;;;;;;;;;21.64;46.85;101040.41;4997554;28;19955;-81
2022/05/11 03:54:08;;;;;;;;;;;;;;;21.63;46.79;101036.84;4998423;28;20369;-89
2022/05/11 03:56:33;;;;;;;;;;;;;;;21.62;46.80;101035.25;4998370;28;19950;-82
2022/05/11 03:58:58;;;;;;;;;;;;;;;21.61;46.61;101028.91;4997067;28;19981;-82
2022/05/11 04:01:23;;;;;;;;;;;;;;;21.63;46.87;101030.56;4998173;28;19943;-82
2022/05/11 04:03:48;;;;;;;;;;;;;;;21.63;46.49;101033.31;4997112;28;19929;-82
2022/05/11 04:06:14;;;;;;;;;;;;;;;21.63;46.55;101036.06;4997999;28;19922;-82
2022/05/11 04:08:39;;;;;;;;;;;;;;;21.62;46.61;101024.25;4996946;28;19933;-82
2022/05/11 04:11:05;;;;;;;;;;;;;;;21.63;46.71;101027.81;4996954;28;19946;-82
2022/05/11 04:13:30;;;;;;;;;;;;;;;21.63;46.55;101030.56;4998552;28;19918;-82
2022/05/11 04:15:55;;;;;;;;;;;;;;;21.62;46.84;101032.50;4997409;28;20030;-81
2022/05/11 04:18:21;;;;;;;;;;;;;;;21.62;46.72;101027.00;4996898;28;19922;-82
2022/05/11 04:20:46;;;;;;;;;;;;;;;21.62;46.84;101029.75;4996911;28;19918;-82
2022/05/11 04:23:12;;;;;;;;;;;;;;;21.63;46.58;101027.81;4997919;28;19918;-87
2022/05/11 04:25:37;;;;;;;;;;;;;;;21.61;46.46;101022.59;4997878;28;19930;-81
2022/05/11 04:28:06;;;;;;;;;;;;;;;21.61;46.48;101022.59;4996653;28;19983;-82
2022/05/11 04:30:31;;;;;;;;;;;;;;;21.61;46.78;101020.66;4996371;28;19922;-82
2022/05/11 04:32:58;;;;;;;;;;;;;;;21.61;46.57;101020.66;4996983;28;19926;-82
2022/05/11 04:35:23;;;;;;;;;;;;;;;21.62;46.56;101032.50;4996814;28;19969;-82
2022/05/11 04:37:49;;;;;;;;;;;;;;;21.61;46.65;101034.41;4996531;28;19938;-81
2022/05/11 04:40:15;;;;;;;;;;;;;;;21.61;46.80;101028.09;4997439;28;19932;-86
2022/05/11 04:42:41;;;;;;;;;;;;;;;21.60;46.58;101032.78;4996603;28;19926;-82
2022/05/11 04:45:06;;;;;;;;;;;;;;;21.60;46.56;101029.22;4996474;28;19979;-82
2022/05/11 04:47:32;;;;;;;;;;;;;;;21.61;46.56;101036.34;4997023;28;19949;-82
2022/05/11 04:49:57;;;;;;;;;;;;;;;21.60;46.51;101032.78;4996907;28;20338;-82
2022/05/11 04:52:22;;;;;;;;;;;;;;;21.60;46.43;101030.03;4997826;28;19975;-81
2022/05/11 04:54:48;;;;;;;;;;;;;;;21.61;46.58;101033.59;4995424;28;19922;-82
2022/05/11 04:57:14;;;;;;;;;;;;;;;21.61;46.53;101031.66;4996423;28;19932;-83
2022/05/11 04:59:40;;;;;;;;;;;;;;;21.61;46.74;101031.66;4997260;28;19972;-83
2022/05/11 05:02:06;;;;;;;;;;;;;;;21.60;46.70;101030.03;4996089;28;19943;-81
2022/05/11 05:04:31;;;;;;;;;;;;;;;21.61;46.89;101034.41;4996116;28;19948;-81
2022/05/11 05:06:56;;;;;;;;;;;;;;;21.61;46.46;101036.34;4997773;28;20377;-82
2022/05/11 05:09:21;;;;;;;;;;;;;;;21.61;46.54;101036.34;4995949;28;19922;-84
2022/05/11 05:11:47;;;;;;;;;;;;;;;21.60;46.94;101041.03;4995930;28;19922;-82
2022/05/11 05:14:12;;;;;;;;;;;;;;;21.61;46.68;101039.09;4997340;28;19930;-82
2022/05/11 05:16:38;;;;;;;;;;;;;;;21.60;46.48;101037.47;4995872;28;19975;-82
2022/05/11 05:19:04;;;;;;;;;;;;;;;21.61;46.80;101041.84;4995968;28;20383;-81
2022/05/11 05:21:31;;;;;;;;;;;;;;;21.60;46.49;101043.78;4996018;28;19926;-83
2022/05/11 05:23:56;;;;;;;;;;;;;;;21.60;46.54;101043.78;4996005;28;20327;-83
2022/05/11 05:26:21;;;;;;;;;;;;;;;21.61;46.58;101044.59;4995589;28;19922;-83
2022/05/11 05:31:31;;;;;;;;;;;;;;;21.60;46.87;101042.97;4997011;28;20051;-83
2022/05/11 05:34:00;;;;;;;;;;;;;;;21.62;46.49;101051.75;4995705;28;20406;-82
2022/05/11 05:36:29;;;;;;;;;;;;;;;21.61;46.57;101055.59;4996133;28;19956;-82
2022/05/11 05:38:56;;;;;;;;;;;;;;;21.62;46.49;101062.72;4996590;28;20400;-81
2022/05/11 05:41:21;;;;;;;;;;;;;;;21.61;46.79;101052.84;4995878;28;19922;-82
2022/05/11 05:43:47;;;;;;;;;;;;;;;21.61;46.47;101058.34;4996605;28;20008;-80
2022/05/11 05:46:14;;;;;;;;;;;;;;;21.60;46.86;101057.53;4996595;28;19922;-80
2022/05/11 05:48:39;;;;;;;;;;;;;;;21.61;46.72;101055.59;4996641;28;20420;-79
2022/05/11 05:51:05;;;;;;;;;;;;;;;21.61;46.87;101055.59;4994780;28;19925;-83
2022/05/11 05:53:31;;;;;;;;;;;;;;;21.63;46.89;101058.03;4995895;28;20023;-80
2022/05/11 05:55:56;;;;;;;;;;;;;;;21.63;46.78;101055.28;4994873;28;20538;-84
2022/05/11 05:58:21;;;;;;;;;;;;;;;21.63;46.85;101050.59;4996132;28;19932;-85
2022/05/11 06:00:47;;;;;;;;;;;;;;;21.65;47.04;101055.81;4994875;28;20083;-81
2022/05/11 06:03:18;;;;;;;;;;;;;;;21.65;47.00;101051.09;4994863;28;20304;-82
2022/05/11 06:05:43;;;;;;;;;;;;;;;21.66;46.87;101057.41;4994816;28;19954;-82
2022/05/11 06:08:08;;;;;;;;;;;;;;;21.65;46.90;101055.81;4995946;28;19926;-82
2022/05/11 06:10:35;;;;;;;;;;;;;;;21.66;47.19;101055.47;4994529;28;19938;-81
2022/05/11 06:13:01;;;;;;;;;;;;;;;21.67;47.00;101070.03;4994638;28;19971;-82
2022/05/11 06:15:26;;;;;;;;;;;;;;;21.66;47.06;101057.41;4994482;28;19922;-82
2022/05/11 06:17:51;;;;;;;;;;;;;;;21.66;47.22;101054.66;4994246;28;19932;-83
2022/05/11 06:20:17;;;;;;;;;;;;;;;21.66;46.96;101055.47;4994331;28;19955;-83
2022/05/11 06:22:42;;;;;;;;;;;;;;;21.66;46.96;101058.22;4994371;28;19936;-82
2022/05/11 06:25:07;;;;;;;;;;;;;;;21.67;46.91;101056.28;4994974;28;19959;-83
2022/05/11 06:27:32;;;;;;;;;;;;;;;21.67;47.18;101053.53;4994121;28;20326;-82
2022/05/11 06:29:59;;;;;;;;;;;;;;;21.67;47.06;101050.78;4994411;28;20333;-82
2022/05/11 06:32:25;;;;;;;;;;;;;;;21.67;47.21;101048.03;4994493;28;19934;-82
2022/05/11 06:34:51;;;;;;;;;;;;;;;21.67;47.36;101043.38;4995352;28;19943;-82
2022/05/11 06:37:17;;;;;;;;;;;;;;;21.67;47.28;101050.78;4994434;28;19961;-80
2022/05/11 06:39:42;;;;;;;;;;;;;;;21.68;47.04;101049.69;4993349;28;20372;-83
2022/05/11 06:42:08;;;;;;;;;;;;;;;21.68;47.25;101050.47;4994450;28;19929;-87
2022/05/11 06:44:34;;;;;;;;;;;;;;;21.71;47.10;101049.06;4994770;28;19995;-83
2022/05/11 06:46:59;;;;;;;;;;;;;;;21.72;47.44;101048.75;4993707;28;19922;-83
2022/05/11 06:49:24;;;;;;;;;;;;;;;21.74;47.33;101051.97;4994637;28;19922;-87
2022/05/11 06:51:49;;;;;;;;;;;;;;;21.75;47.13;101045.38;4993945;28;19939;-89
2022/05/11 06:59:43;;;;;;;;;;;;;;;21.79;47.18;101037.31;4994328;28;19981;-84
2022/05/11 07:02:08;;;;;;;;;;;;;;;21.81;47.16;101044.13;4993934;28;20307;-84
2022/05/11 07:04:35;;;;;;;;;;;;;;;21.82;47.34;101028.44;4993518;28;20089;-81
2022/05/11 07:07:00;;;;;;;;;;;;;;;21.85;47.29;101033.31;4994828;28;19932;-82
2022/05/11 07:09:27;;;;;;;;;;;;;;;21.86;47.43;101032.19;4994800;28;19924;-86
2022/05/11 07:14:37;;;;;;;;;;;;;;;21.88;47.32;101035.44;4995009;28;20313;-83
2022/05/11 07:17:02;;;;;;;;;;;;;;;21.90;47.46;101037.88;4993774;28;19918;-86
2022/05/11 07:19:28;;;;;;;;;;;;;;;21.91;47.33;101042.25;4993194;28;19988;-87
2022/05/11 07:21:53;;;;;;;;;;;;;;;21.91;47.35;101032.06;4994363;28;19967;-86
2022/05/11 07:24:19;;;;;;;;;;;;;;;21.93;47.16;101037.25;4993284;28;19952;-89
2022/05/11 07:26:44;;;;;;;;;;;;;;;21.93;47.14;101046.31;4993130;28;20365;-87
2022/05/11 07:29:09;;;;;;;;;;;;;;;21.94;47.50;101031.44;4994832;28;19944;-94
2022/05/11 07:31:34;;;;;;;;;;;;;;;21.95;47.07;101035.81;4990540;28;19960;-91
2022/05/11 07:34:00;;;;;;;;;;;;;;;21.96;47.07;101036.63;4991066;28;20376;-90
2022/05/11 07:36:25;;;;;;;;;;;;;;;21.96;47.02;101040.19;4976116;28;19965;-91
2022/05/11 07:38:51;;;;;;;;;;;;;;;21.97;46.91;101038.25;4990713;28;19933;-90
2022/05/11 07:41:17;;;;;;;;;;;;;;;21.97;46.88;101033.59;4990013;28;19948;-88
2022/05/11 07:43:42;;;;;;;;;;;;;;;21.97;46.80;101046.50;4975244;28;20010;-89
2022/05/11 07:46:09;;;;;;;;;;;;;;;21.99;46.66;101047.00;4990793;28;20336;-87
2022/05/11 07:48:34;;;;;;;;;;;;;;;21.99;46.70;101044.25;4974898;28;19932;-89
2022/05/11 07:50:59;;;;;;;;;;;;;;;21.98;46.59;101051.69;4989883;28;19987;-89
2022/05/11 07:53:25;;;;;;;;;;;;;;;21.99;46.74;101055.25;4989610;28;20396;-87
2022/05/11 07:59:52;;;;;;;;;;;;;;;22.00;46.58;101052.22;4991515;28;20046;-91
2022/05/11 08:01:20;;;;;;;;;;;;;;;21.99;46.64;101042.31;4992751;28;20248;-94
2022/05/11 08:03:45;;;;;;;;;;;;;;;22.00;46.35;101049.47;4989429;28;19928;-93
2022/05/11 08:06:11;;;;;;;;;;;;;;;22.00;46.46;101052.22;5003898;28;19952;-93
2022/05/11 08:08:36;;;;;;;;;;;;;;;22.00;46.21;101043.16;5003263;28;19952;-90
2022/05/11 08:11:01;;;;;;;;;;;;;;;22.00;46.18;101052.22;4991243;28;19936;-86
2022/05/11 08:13:28;;;;;;;;;;;;;;;22.00;46.20;101046.72;4989965;28;20009;-88
2022/05/11 08:15:53;;;;;;;;;;;;;;;21.99;46.21;101038.75;4989275;28;19929;-85
2022/05/11 08:18:18;;;;;;;;;;;;;;;21.99;46.24;101036.81;4974333;28;19928;-87
2022/05/11 08:20:46;;;;;;;;;;;;;;;21.98;46.03;101042.66;4989188;28;20391;-83
2022/05/11 08:23:11;;;;;;;;;;;;;;;21.97;46.17;101039.09;4974023;28;20353;-84
2022/05/11 08:25:38;;;;;;;;;;;;;;;21.98;46.12;101028.88;4988478;28;19964;-84
2022/05/11 08:28:08;;;;;;;;;;;;;;;21.98;46.02;101024.19;4973722;28;19953;-83
2022/05/11 08:33:23;;;;;;;;;;;;;;;21.99;45.90;101025.81;4998218;28;19935;-83
2022/05/11 08:35:59;;;;;;;;;;;;;;;22.00;45.90;101032.94;4996574;28;19955;-85
2022/05/11 08:38:26;;;;;;;;;;;;;;;21.99;46.20;101023.06;4997319;28;20301;-84
2022/05/11 08:40:51;;;;;;;;;;;;;;;22.01;45.95;101031.00;4996595;28;20301;-83
2022/05/11 08:43:18;;;;;;;;;;;;;;;22.00;46.11;101030.19;4997182;28;19925;-78
2022/05/11 08:45:55;;;;;;;;;;;;;;;22.01;45.98;101033.75;4996277;28;19922;-80
2022/05/11 08:48:47;;;;;;;;;;;;;;;22.02;46.25;101038.13;4995671;28;20360;-79
2022/05/11 08:51:33;;;;;;;;;;;;;;;22.02;45.88;101030.72;4995648;28;19951;-80
2022/05/11 08:54:11;;;;;;;;;;;;;;;22.03;46.05;101039.75;4986345;28;19949;-83
2022/05/11 08:56:37;;;;;;;;;;;;;;;22.03;46.00;101034.25;4996992;28;20012;-84
2022/05/11 08:59:03;;;;;;;;;;;;;;;22.03;45.75;101024.06;4996761;28;20016;-86
2022/05/11 09:01:34;;;;;;;;;;;;;;;22.04;45.96;101025.69;4995694;28;20456;-83
2022/05/11 09:03:59;;;;;;;;;;;;;;;22.03;45.66;101024.06;4997205;28;19944;-84
2022/05/11 09:06:27;;;;;;;;;;;;;;;22.03;45.92;101024.06;4995530;28;20033;-85
2022/05/11 09:08:53;;;;;;;;;;;;;;;22.03;45.50;101026.00;4995303;28;19917;-82
2022/05/11 09:11:25;;;;;;;;;;;;;;;22.02;45.72;101027.97;4996824;28;19944;-84
2022/05/11 09:13:50;;;;;;;;;;;;;;;22.04;45.49;101030.38;4996837;28;19925;-84
2022/05/11 09:16:26;;;;;;;;;;;;;;;22.03;45.37;101015.81;4995768;28;19934;-84
2022/05/11 09:18:51;;;;;;;;;;;;;;;22.06;45.42;101019.06;4995176;28;19944;-84
2022/05/11 09:21:25;;;;;;;;;;;;;;;22.05;45.38;101015.50;4995274;28;20374;-83
2022/05/11 09:24:08;;;;;;;;;;;;;;;22.04;45.20;101013.88;4994666;28;19917;-78
2022/05/11 09:26:37;;;;;;;;;;;;;;;22.04;45.26;101011.94;4996585;28;19932;-83
2022/05/11 09:29:21;;;;;;;;;;;;;;;22.05;45.39;101010.00;4994827;28;19956;-81
2022/05/11 09:31:48;;;;;;;;;;;;;;;22.04;45.19;101011.94;4994339;28;19922;-85
2022/05/11 09:34:22;;;;;;;;;;;;;;;22.06;45.53;101005.31;4996222;28;19929;-80
2022/05/11 09:36:57;;;;;;;;;;;;;;;22.05;45.23;101007.25;4996141;28;19964;-81
2022/05/11 09:39:23;;;;;;;;;;;;;;;22.06;45.12;100997.88;4995764;28;19925;-86
2022/05/11 09:41:53;;;;;;;;;;;;;;;22.07;45.12;101001.44;4994881;28;19932;-84
2022/05/11 09:44:23;;;;;;;;;;;;;;;22.07;45.05;101002.22;4994831;28;20009;-77
2022/05/11 09:46:49;;;;;;;;;;;;;;;22.07;45.20;100996.72;4995640;28;20375;-77
2022/05/11 09:49:17;;;;;;;;;;;;;;;22.08;45.44;100992.06;4995847;28;19928;-77
2022/05/11 09:51:44;;;;;;;;;;;;;;;22.09;45.14;100999.19;4996342;28;19918;-77
2022/05/11 09:54:21;;;;;;;;;;;;;;;22.09;45.37;101005.50;4995810;28;19994;-80
2022/05/11 09:56:49;;;;;;;;;;;;;;;22.09;45.32;101001.94;4995930;28;19942;-81
2022/05/11 09:59:28;;;;;;;;;;;;;;;22.09;44.98;100997.25;4995685;28;19917;-79
2022/05/11 10:01:59;;;;;;;;;;;;;;;22.09;45.10;101002.75;4995192;28;19917;-79
2022/05/11 10:04:29;;;;;;;;;;;;;;;22.10;45.08;101004.38;4994507;28;19952;-79
2022/05/11 10:06:55;;;;;;;;;;;;;;;22.11;45.49;101014.25;4995664;28;19928;-86
2022/05/11 10:09:34;;;;;;;;;;;;;;;22.12;45.48;101010.34;4994462;28;19964;-82
2022/05/11 10:12:00;;;;;;;;;;;;;;;22.12;45.36;101004.03;4996214;28;19982;-82
2022/05/11 10:23:23;;;;;;;;;;;;;;;22.14;45.35;100990.78;4954242;29;19919;-79
2022/05/11 10:25:54;;;;;;;;;;;;;;;22.14;45.08;100990.78;4955371;29;19949;-92
2022/05/11 10:28:25;;;;;;;;;;;;;;;22.16;45.19;100988.53;4962851;28;19940;-80
2022/05/11 10:31:26;;;;;;;;;;;;;;;22.16;45.07;100988.53;4993303;28;19923;-81
2022/05/11 10:33:54;;;;;;;;;;;;;;;22.16;45.03;100978.34;4918908;29;19942;-81
2022/05/11 10:36:22;;;;;;;;;;;;;;;22.17;45.37;100979.16;4983543;28;19948;-82
2022/05/11 10:39:05;;;;;;;;;;;;;;;22.17;45.38;100974.47;4993705;28;20388;-80
2022/05/11 10:41:49;;;;;;;;;;;;;;;22.19;45.26;100982.41;4994108;28;19944;-81
2022/05/11 10:44:37;;;;;;;;;;;;;;;22.19;45.26;100963.16;4994356;28;20339;-80
2022/05/11 10:47:17;;;;;;;;;;;;;;;22.19;44.99;100977.75;4994571;28;20389;-79
2022/05/11 10:49:51;;;;;;;;;;;;;;;22.19;45.07;100975.00;4993455;28;19924;-83
2022/05/11 10:52:19;;;;;;;;;;;;;;;22.20;45.13;100970.28;4994070;28;19988;-77
2022/05/11 10:55:08;;;;;;;;;;;;;;;22.21;45.01;100969.19;4994229;28;19935;-84
2022/05/11 10:57:33;;;;;;;;;;;;;;;22.21;45.05;100967.25;4987304;28;19936;-83
2022/05/11 11:00:07;;;;;;;;;;;;;;;22.23;45.39;100964.19;4994740;28;19932;-82
2022/05/11 11:02:40;;;;;;;;;;;;;;;22.23;45.04;100961.44;4993510;28;19991;-80
2022/05/11 11:05:09;;;;;;;;;;;;;;;22.24;45.11;100963.03;4994590;28;20403;-80
2022/05/11 11:07:43;;;;;;;;;;;;;;;22.24;44.92;100957.53;4994812;28;20000;-81
2022/05/11 11:10:24;;;;;;;;;;;;;;;22.25;45.09;100960.00;4994308;28;19991;-82
2022/05/11 11:13:20;;;;;;;;;;;;;;;22.25;44.99;100945.38;4993562;28;19922;-82
2022/05/11 11:15:45;;;;;;;;;;;;;;;22.25;45.28;100940.72;4982030;28;19951;-81
2022/05/11 11:18:12;;;;;;;;;;;;;;;22.26;45.05;100944.28;4994457;28;19932;-80
2022/05/11 11:20:39;;;;;;;;;;;;;;;22.26;45.31;100941.53;4994366;28;19965;-81
2022/05/11 11:23:05;;;;;;;;;;;;;;;22.27;45.52;100945.91;4994647;28;19955;-82
2022/05/11 11:25:53;;;;;;;;;;;;;;;22.27;45.28;100936.84;4993661;28;19968;-81
2022/05/11 11:28:30;;;;;;;;;;;;;;;22.26;45.06;100944.28;4994829;28;20105;-81
2022/05/11 11:30:58;;;;;;;;;;;;;;;22.27;45.33;100948.66;4992949;28;19936;-83
2022/05/11 11:33:24;;;;;;;;;;;;;;;22.28;45.32;100941.22;4994605;28;20411;-81
2022/05/11 11:35:52;;;;;;;;;;;;;;;22.27;44.94;100945.91;4993351;28;19954;-81
2022/05/11 11:38:24;;;;;;;;;;;;;;;22.29;44.93;100931.81;4993201;28;19933;-82
2022/05/11 11:41:09;;;;;;;;;;;;;;;22.29;45.32;100937.34;4994528;28;20378;-81
2022/05/11 11:43:52;;;;;;;;;;;;;;;22.29;44.97;100932.63;4994797;28;19917;-77
2022/05/11 11:46:38;;;;;;;;;;;;;;;22.30;44.92;100931.53;4994039;28;19947;-79
2022/05/11 11:49:11;;;;;;;;;;;;;;;22.31;45.08;100924.06;4993364;28;19917;-78
2022/05/11 11:51:58;;;;;;;;;;;;;;;22.31;45.26;100922.13;4994365;28;19932;-78
2022/05/11 11:54:26;;;;;;;;;;;;;;;22.33;45.06;100921.81;4995136;28;20078;-84
2022/05/11 11:56:54;;;;;;;;;;;;;;;22.34;45.48;100928.94;4995356;28;19934;-85
2022/05/11 11:59:22;;;;;;;;;;;;;;;22.34;45.32;100917.94;4993719;28;19921;-85
2022/05/11 12:01:48;;;;;;;;;;;;;;;22.35;45.25;100922.28;4992949;28;19951;-88
2022/05/11 12:04:31;;;;;;;;;;;;;;;22.36;44.87;100921.19;4996060;28;19944;-84
2022/05/11 12:15:30;;;;;;;;;;;;;;;22.39;44.89;100913.09;4997776;28;19953;-78
2022/05/11 12:17:55;;;;;;;;;;;;;;;22.39;45.00;100891.06;4997247;28;19956;-79
2022/05/11 12:20:21;;;;;;;;;;;;;;;22.39;44.73;100893.81;4996271;28;19969;-80
2022/05/11 12:22:48;;;;;;;;;;;;;;;22.40;44.83;100884.44;4996317;28;19922;-78
2022/05/11 12:25:19;;;;;;;;;;;;;;;22.41;44.50;100893.50;4996180;28;19952;-79
2022/05/11 12:27:45;;;;;;;;;;;;;;;22.41;44.86;100891.56;4995957;28;19932;-78
2022/05/11 12:30:19;;;;;;;;;;;;;;;22.42;44.61;100887.66;4996198;28;19932;-81
2022/05/11 12:32:50;;;;;;;;;;;;;;;22.42;44.43;100887.66;4996295;28;19943;-81
2022/05/11 12:35:22;;;;;;;;;;;;;;;22.43;44.24;100885.75;4996673;28;19933;-88
2022/05/11 12:37:56;;;;;;;;;;;;;;;22.44;44.43;100893.69;4998256;28;19943;-82
2022/05/11 12:40:21;;;;;;;;;;;;;;;22.45;44.48;100880.72;4997199;28;19918;-82
2022/05/11 12:42:57;;;;;;;;;;;;;;;22.45;44.68;100886.22;4996778;28;19987;-83
2022/05/11 12:45:34;;;;;;;;;;;;;;;22.46;44.67;100888.66;4997300;28;19940;-80
2022/05/11 12:47:59;;;;;;;;;;;;;;;22.46;44.26;100877.66;4996761;28;19939;-79
2022/05/11 12:50:30;;;;;;;;;;;;;;;22.46;44.29;100877.66;4997383;28;20435;-80
2022/05/11 12:53:01;;;;;;;;;;;;;;;22.47;44.15;100875.72;4997402;28;20342;-81
2022/05/11 12:55:27;;;;;;;;;;;;;;;22.49;44.53;100884.47;4997217;28;20403;-84
2022/05/11 12:57:55;;;;;;;;;;;;;;;22.49;44.40;100876.22;4995765;28;19976;-81
2022/05/11 13:00:22;;;;;;;;;;;;;;;22.51;44.21;100884.16;4995619;28;19936;-80
2022/05/11 13:02:49;;;;;;;;;;;;;;;22.50;44.49;100877.00;4997040;28;20009;-79
2022/05/11 13:05:16;;;;;;;;;;;;;;;22.51;44.07;100868.44;4995463;28;19922;-80
2022/05/11 13:07:48;;;;;;;;;;;;;;;22.52;44.55;100875.56;4995694;28;19952;-78
2022/05/11 13:10:16;;;;;;;;;;;;;;;22.54;44.46;100869.75;4996830;28;19935;-79
2022/05/11 13:12:44;;;;;;;;;;;;;;;22.53;43.97;100865.34;4995614;28;20330;-79
2022/05/11 13:15:10;;;;;;;;;;;;;;;22.55;44.09;100865.84;4995857;28;19950;-80
2022/05/11 13:17:39;;;;;;;;;;;;;;;22.55;44.10;100857.59;4995479;28;19918;-80
2022/05/11 13:20:05;;;;;;;;;;;;;;;22.55;43.78;100865.84;4996252;28;19918;-82